Terminal Aerodrome Forecast
Issued by NWS Wilmington, OH

Current Version | Previous Version | Graphics & Text | Print | Product List | Glossary On
Versions: 1 2 3 4 5 6 7 8 9 10 11 12 13 14 15 16 17
000
FTUS41 KILN 270500
TAFCMH
TAF
KCMH 270522Z 2706/2806 33008KT P6SM BKN040
     FM271400 33011KT P6SM BKN035
     FM271900 32012G20KT P6SM BKN040
     FM280000 32008KT P6SM FEW040=

USA.gov is the U.S. government's official web portal to all federal, state and local government web resources and services.